createdAt,value
2022-12-06T00:01:59.933Z,992.28
2022-12-06T00:05:59.841Z,992.26
2022-12-06T00:09:59.988Z,992.26
2022-12-06T00:13:59.728Z,992.26
2022-12-06T00:17:59.671Z,992.27
2022-12-06T00:21:59.855Z,992.26
2022-12-06T00:25:59.585Z,992.30
2022-12-06T00:29:59.823Z,992.23
2022-12-06T00:33:59.470Z,992.18
2022-12-06T00:37:59.421Z,992.15
2022-12-06T00:41:59.357Z,992.11
2022-12-06T00:45:59.380Z,992.10
2022-12-06T00:49:59.607Z,992.08
2022-12-06T00:53:59.209Z,992.16
2022-12-06T00:57:59.192Z,992.13
2022-12-06T01:01:59.069Z,992.20
2022-12-06T01:05:59.037Z,992.20
2022-12-06T01:09:59.344Z,992.21
2022-12-06T01:13:58.911Z,992.31
2022-12-06T01:17:58.830Z,992.26
2022-12-06T01:21:59.186Z,992.28
2022-12-06T01:25:58.930Z,992.32
2022-12-06T01:29:59.226Z,992.32
2022-12-06T01:33:58.628Z,992.32
2022-12-06T01:38:04.443Z,992.23
2022-12-06T01:41:58.503Z,992.15
2022-12-06T01:45:58.504Z,992.14
2022-12-06T01:49:58.736Z,992.10
2022-12-06T01:57:58.281Z,992.04
2022-12-06T02:01:58.437Z,992.01
2022-12-06T02:05:58.179Z,992.06
2022-12-06T02:09:58.536Z,992.05
2022-12-06T02:13:58.057Z,992.03
2022-12-06T02:17:58.037Z,992.06
2022-12-06T02:21:57.941Z,992.01
2022-12-06T02:25:57.886Z,991.90
2022-12-06T02:33:57.815Z,991.86
2022-12-06T02:37:57.736Z,991.86
2022-12-06T02:41:57.678Z,991.72
2022-12-06T02:45:57.679Z,991.69
2022-12-06T02:49:57.866Z,991.73
2022-12-06T02:53:57.483Z,991.68
2022-12-06T03:01:57.422Z,991.64
2022-12-06T03:05:57.375Z,991.62
2022-12-06T03:09:57.392Z,991.64
2022-12-06T03:13:57.193Z,991.61
2022-12-06T03:17:57.169Z,991.60
2022-12-06T03:21:57.137Z,991.53
2022-12-06T03:25:57.043Z,991.51
2022-12-06T03:29:57.255Z,991.44
2022-12-06T03:33:57.157Z,991.38
2022-12-06T03:37:57.025Z,991.28
2022-12-06T03:41:56.857Z,991.29
2022-12-06T03:45:56.969Z,991.28
2022-12-06T03:49:57.193Z,991.24
2022-12-06T03:53:56.738Z,991.21
2022-12-06T03:57:56.592Z,991.15
2022-12-06T04:01:56.663Z,991.09
2022-12-06T04:05:56.517Z,991.07
2022-12-06T04:09:56.549Z,990.99
2022-12-06T04:13:56.449Z,990.96
2022-12-06T04:17:56.345Z,990.97
2022-12-06T04:21:56.294Z,990.93
2022-12-06T04:25:56.241Z,990.92
2022-12-06T04:29:56.285Z,990.89
2022-12-06T04:33:56.103Z,990.83
2022-12-06T04:37:56.048Z,990.89
2022-12-06T04:41:56.003Z,990.80
2022-12-06T04:45:55.990Z,990.81
2022-12-06T04:49:55.942Z,990.80
2022-12-06T04:53:55.828Z,990.82
2022-12-06T04:57:55.778Z,990.79
2022-12-06T05:01:55.748Z,990.78
2022-12-06T05:05:55.736Z,990.82
2022-12-06T05:09:55.654Z,990.83
2022-12-06T05:13:55.582Z,990.80
2022-12-06T05:17:55.537Z,990.81
2022-12-06T05:21:55.489Z,990.79
2022-12-06T05:25:55.373Z,990.81
2022-12-06T05:29:55.339Z,990.78
2022-12-06T05:33:55.373Z,990.78
2022-12-06T05:37:55.239Z,990.80
2022-12-06T05:41:55.150Z,990.84
2022-12-06T05:45:55.197Z,990.92
2022-12-06T05:49:55.035Z,990.92
2022-12-06T05:53:55.000Z,990.86
2022-12-06T05:57:54.923Z,990.81
2022-12-06T06:01:55.132Z,990.78
2022-12-06T06:05:54.839Z,990.79
2022-12-06T06:09:54.764Z,990.78
2022-12-06T06:13:54.696Z,990.79
2022-12-06T06:17:54.652Z,990.77
2022-12-06T06:21:54.801Z,990.75
2022-12-06T06:25:54.528Z,990.71
2022-12-06T06:29:54.488Z,990.70
2022-12-06T06:33:54.433Z,990.72
2022-12-06T06:37:54.355Z,990.74
2022-12-06T06:41:54.397Z,990.77
2022-12-06T06:45:54.398Z,990.80
2022-12-06T06:49:54.219Z,990.82
2022-12-06T06:53:54.159Z,990.76
2022-12-06T06:57:54.091Z,990.78
2022-12-06T07:01:54.104Z,990.82
2022-12-06T07:05:54.194Z,990.80
2022-12-06T07:09:53.912Z,990.78
2022-12-06T07:13:53.856Z,990.76
2022-12-06T07:17:53.800Z,990.83
2022-12-06T07:21:53.987Z,990.86
2022-12-06T07:25:53.719Z,990.86
2022-12-06T07:29:53.663Z,990.82
2022-12-06T07:33:53.607Z,990.84
2022-12-06T07:37:53.553Z,990.76
2022-12-06T07:41:53.527Z,990.81
2022-12-06T07:45:53.496Z,990.79
2022-12-06T07:49:53.356Z,990.79
2022-12-06T07:53:53.343Z,990.78
2022-12-06T07:57:53.290Z,990.77
2022-12-06T08:01:53.305Z,990.70
2022-12-06T08:05:53.209Z,990.71
2022-12-06T08:09:53.129Z,990.63
2022-12-06T08:13:53.109Z,990.67
2022-12-06T08:17:52.972Z,990.65
2022-12-06T08:21:52.901Z,990.69
2022-12-06T08:25:52.916Z,990.67
2022-12-06T08:29:52.802Z,990.64
2022-12-06T08:33:52.740Z,990.72
2022-12-06T08:41:52.689Z,990.82
2022-12-06T08:45:52.654Z,990.84
2022-12-06T08:49:52.715Z,990.90
2022-12-06T08:53:52.494Z,990.91
2022-12-06T08:57:52.432Z,990.98
2022-12-06T09:01:52.425Z,990.97
2022-12-06T09:05:52.278Z,991.01
2022-12-06T09:09:52.242Z,991.03
2022-12-06T09:13:52.222Z,991.04
2022-12-06T09:17:52.132Z,991.14
2022-12-06T09:21:52.087Z,991.11
2022-12-06T09:25:52.048Z,991.16
2022-12-06T09:29:51.984Z,991.16
2022-12-06T09:33:51.898Z,991.18
2022-12-06T09:37:51.885Z,991.13
2022-12-06T09:41:51.821Z,991.17
2022-12-06T09:45:51.785Z,991.19
2022-12-06T09:49:51.677Z,991.14
2022-12-06T09:53:52.041Z,991.08
2022-12-06T09:57:51.607Z,991.12
2022-12-06T10:01:51.647Z,991.04
2022-12-06T10:05:52.180Z,991.02
2022-12-06T10:09:51.410Z,991.01
2022-12-06T10:13:51.358Z,990.99
2022-12-06T10:17:52.663Z,990.88
2022-12-06T10:21:51.306Z,990.87
2022-12-06T10:25:51.479Z,990.84
2022-12-06T10:29:51.136Z,990.82
2022-12-06T10:33:51.133Z,990.80
2022-12-06T10:37:51.025Z,990.74
2022-12-06T10:41:50.985Z,990.79
2022-12-06T10:45:50.906Z,990.80
2022-12-06T10:49:50.872Z,990.81
2022-12-06T10:53:50.834Z,990.81
2022-12-06T10:57:50.759Z,990.83
2022-12-06T11:01:50.796Z,990.79
2022-12-06T11:05:50.639Z,990.75
2022-12-06T11:09:50.570Z,990.74
2022-12-06T11:13:50.532Z,990.72
2022-12-06T11:17:50.485Z,990.72
2022-12-06T11:21:50.425Z,990.71
2022-12-06T11:25:50.359Z,990.65
2022-12-06T11:29:50.284Z,990.67
2022-12-06T11:33:50.255Z,990.63
2022-12-06T11:37:50.249Z,990.59
2022-12-06T11:41:50.156Z,990.59
2022-12-06T11:45:50.085Z,990.54
2022-12-06T11:49:50.039Z,990.52
2022-12-06T11:53:49.995Z,990.52
2022-12-06T11:57:49.888Z,990.56
2022-12-06T12:01:49.965Z,990.49
2022-12-06T12:05:49.796Z,990.43
2022-12-06T12:09:49.758Z,990.40
2022-12-06T12:13:49.682Z,990.38
2022-12-06T12:17:49.991Z,990.39
2022-12-06T12:21:54.242Z,990.39
2022-12-06T12:25:49.534Z,990.39
2022-12-06T12:29:49.461Z,990.35
2022-12-06T12:33:49.435Z,990.34
2022-12-06T12:37:49.341Z,990.31
2022-12-06T12:41:49.351Z,990.29
2022-12-06T12:45:49.289Z,990.29
2022-12-06T12:49:49.180Z,990.25
2022-12-06T12:53:49.116Z,990.29
2022-12-06T12:57:49.094Z,990.27
2022-12-06T13:01:49.115Z,990.31
2022-12-06T13:05:49.442Z,990.26
2022-12-06T13:09:48.876Z,990.23
2022-12-06T13:13:48.850Z,990.22
2022-12-06T13:17:48.771Z,990.22
2022-12-06T13:21:48.926Z,990.25
2022-12-06T13:25:48.873Z,990.23
2022-12-06T13:29:48.702Z,990.19
2022-12-06T13:33:48.570Z,990.28
2022-12-06T13:37:48.645Z,990.26
2022-12-06T13:41:48.449Z,990.21
2022-12-06T13:45:48.604Z,990.26
2022-12-06T13:49:49.206Z,990.23
2022-12-06T13:53:48.277Z,990.28
2022-12-06T13:57:48.234Z,990.24
2022-12-06T14:01:48.331Z,990.20
2022-12-06T14:05:48.118Z,990.20
2022-12-06T14:09:48.051Z,990.15
2022-12-06T14:13:48.005Z,990.18
2022-12-06T14:18:08.180Z,990.15
2022-12-06T14:21:47.891Z,990.21
2022-12-06T14:25:47.853Z,990.22
2022-12-06T14:29:47.786Z,990.26
2022-12-06T14:33:47.936Z,990.27
2022-12-06T14:37:47.704Z,990.24
2022-12-06T14:41:47.597Z,990.17
2022-12-06T14:45:47.653Z,990.20
2022-12-06T14:49:47.510Z,990.22
2022-12-06T14:53:47.437Z,990.26
2022-12-06T14:57:47.390Z,990.25
2022-12-06T15:01:47.533Z,990.27
2022-12-06T15:05:47.310Z,990.30
2022-12-06T15:09:47.228Z,990.29
2022-12-06T15:13:47.138Z,990.32
2022-12-06T15:17:47.146Z,990.31
2022-12-06T15:21:47.079Z,990.34
2022-12-06T15:25:47.033Z,990.35
2022-12-06T15:29:46.933Z,990.30
2022-12-06T15:33:47.295Z,990.28
2022-12-06T15:37:50.335Z,990.28
2022-12-06T15:41:46.771Z,990.34
2022-12-06T15:45:46.694Z,990.29
2022-12-06T15:49:46.676Z,990.30
2022-12-06T15:53:46.609Z,990.36
2022-12-06T15:57:46.784Z,990.38
2022-12-06T16:01:46.740Z,990.39
2022-12-06T16:05:46.440Z,990.40
2022-12-06T16:09:46.603Z,990.41
2022-12-06T16:13:46.306Z,990.46
2022-12-06T16:17:46.272Z,990.46
2022-12-06T16:21:46.205Z,990.50
2022-12-06T16:25:46.178Z,990.47
2022-12-06T16:29:46.089Z,990.48
2022-12-06T16:33:46.024Z,990.51
2022-12-06T16:37:46.082Z,990.46
2022-12-06T16:41:45.947Z,990.47
2022-12-06T16:45:45.895Z,990.48
2022-12-06T16:49:48.025Z,990.47
2022-12-06T16:53:45.747Z,990.38
2022-12-06T16:57:45.732Z,990.39
2022-12-06T17:01:45.652Z,990.38
2022-12-06T17:05:45.596Z,990.33
2022-12-06T17:09:45.521Z,990.35
2022-12-06T17:13:45.481Z,990.32
2022-12-06T17:17:45.408Z,990.26
2022-12-06T17:21:45.350Z,990.29
2022-12-06T17:25:45.285Z,990.26
2022-12-06T17:29:45.299Z,990.30
2022-12-06T17:33:45.187Z,990.34
2022-12-06T17:37:45.143Z,990.41
2022-12-06T17:41:51.362Z,990.41
2022-12-06T17:45:45.089Z,990.44
2022-12-06T17:49:45.193Z,990.47
2022-12-06T17:53:44.953Z,990.46
2022-12-06T17:57:44.847Z,990.49
2022-12-06T18:02:13.576Z,990.50
2022-12-06T18:05:44.742Z,990.45
2022-12-06T18:09:44.701Z,990.45
2022-12-06T18:13:44.646Z,990.45
2022-12-06T18:17:44.675Z,990.44
2022-12-06T18:21:44.547Z,990.38
2022-12-06T18:25:44.454Z,990.46
2022-12-06T18:29:44.397Z,990.49
2022-12-06T18:33:44.372Z,990.54
2022-12-06T18:37:44.325Z,990.50
2022-12-06T18:41:44.262Z,990.48
2022-12-06T18:45:44.249Z,990.51
2022-12-06T18:49:44.158Z,990.49
2022-12-06T18:53:44.126Z,990.53
2022-12-06T19:01:44.009Z,990.55
2022-12-06T19:06:02.301Z,990.60
2022-12-06T19:09:43.854Z,990.58
2022-12-06T19:13:43.792Z,990.59
2022-12-06T19:17:43.736Z,990.63
2022-12-06T19:21:43.773Z,990.63
2022-12-06T19:29:43.549Z,990.53
2022-12-06T19:33:43.586Z,990.53
2022-12-06T19:37:43.486Z,990.55
2022-12-06T19:41:43.429Z,990.54
2022-12-06T19:45:43.406Z,990.56
2022-12-06T19:49:43.297Z,990.52
2022-12-06T19:53:43.296Z,990.48
2022-12-06T19:57:43.387Z,990.55
2022-12-06T20:01:43.232Z,990.56
2022-12-06T20:05:43.059Z,990.53
2022-12-06T20:09:43.029Z,990.52
2022-12-06T20:13:43.002Z,990.53
2022-12-06T20:17:42.989Z,990.50
2022-12-06T20:21:42.853Z,990.54
2022-12-06T20:25:42.883Z,990.49
2022-12-06T20:29:42.753Z,990.48
2022-12-06T20:33:42.927Z,990.47
2022-12-06T20:37:42.629Z,990.49
2022-12-06T20:41:42.587Z,990.51
2022-12-06T20:45:42.512Z,990.47
2022-12-06T20:49:42.465Z,990.49
2022-12-06T20:53:42.428Z,990.47
2022-12-06T20:57:42.364Z,990.46
2022-12-06T21:01:42.423Z,990.42
2022-12-06T21:05:45.255Z,990.42
2022-12-06T21:09:42.188Z,990.41
2022-12-06T21:13:42.370Z,990.39
2022-12-06T21:17:42.136Z,990.35
2022-12-06T21:21:42.402Z,990.36
2022-12-06T21:25:42.206Z,990.41
2022-12-06T21:29:41.952Z,990.42
2022-12-06T21:33:41.849Z,990.43
2022-12-06T21:37:41.803Z,990.47
2022-12-06T21:41:41.744Z,990.45
2022-12-06T21:45:41.727Z,990.41
2022-12-06T21:49:41.681Z,990.41
2022-12-06T21:53:41.590Z,990.40
2022-12-06T21:57:41.517Z,990.38
2022-12-06T22:01:41.561Z,990.43
2022-12-06T22:05:41.400Z,990.43
2022-12-06T22:09:41.474Z,990.42
2022-12-06T22:13:41.315Z,990.34
2022-12-06T22:17:41.276Z,990.33
2022-12-06T22:21:41.182Z,990.37
2022-12-06T22:25:41.122Z,990.40
2022-12-06T22:29:41.144Z,990.31
2022-12-06T22:33:41.133Z,990.31
2022-12-06T22:37:40.959Z,990.30
2022-12-06T22:41:40.914Z,990.22
2022-12-06T22:45:40.920Z,990.22
2022-12-06T22:49:41.057Z,990.27
2022-12-06T22:53:40.748Z,990.23
2022-12-06T22:57:40.696Z,990.18
2022-12-06T23:01:40.723Z,990.22
2022-12-06T23:05:40.595Z,990.20
2022-12-06T23:09:40.611Z,990.15
2022-12-06T23:13:40.672Z,990.15
2022-12-06T23:17:40.487Z,990.12
2022-12-06T23:21:40.543Z,990.09
2022-12-06T23:25:40.307Z,990.06
2022-12-06T23:29:40.361Z,989.97
2022-12-06T23:33:40.252Z,990.03
2022-12-06T23:41:40.105Z,990.01
2022-12-06T23:45:40.164Z,989.96
2022-12-06T23:49:40.080Z,989.91
2022-12-06T23:53:39.895Z,989.88
2022-12-06T23:57:39.880Z,989.81
